Center Tuftonboro, NH (03816)

4:12 AM EST on January 31, 2015 (GMT -0500)
Chateau Robichaud | Change Station
CLOSE
Current Station
Personal Weather Station
Location: Tuftonboro, NH
Elevation: 755 ft
Nearby Weather Stations

Elev 755 ft 43.69 °N, 71.24 °W | Updated 25 seconds ago

Overcast
Overcast
10.6 °F
Feels Like 11 °F
N
0.0
Wind Variable Wind from SSW
Gusts 0.0 mph

Today
High -- | Low -- °F
--% Chance of Precip.
Yesterday
High -- | Low -- °F
Precip. -- in
7:02 AM 4:54 PM
Waxing Gibbous, 88% visible
Pressure 29.75 in
Visibility 10.0 miles
Clouds Mostly Cloudy 7000 ft
Overcast 10000 ft
Windchill 11 °F
Dew Point 8 °F
Humidity 90%
Rainfall 0.00 in
Snow Depth Not available.
UV 0 out of 12
Pollen .10 out of 12
Air Quality Not available.
Flu Activity Not available.
METAR KLCI 310855Z AUTO 28012G21KT 10SM BKN070 OVC100 M12/M19 A2975 RMK AO1 52003

More Conditions Fewer Conditions

Pressure 29.75 in
Visibility 10.0 miles
Clouds Mostly Cloudy 7000 ft
Overcast 10000 ft
Windchill 11 °F
Dew Point 8 °F
Humidity 90%
Rainfall 0.00 in
Snow Depth Not available.
UV 0 out of 12
Pollen .10 out of 12
Air Quality Not available.
Flu Activity Not available.
METAR KLCI 310855Z AUTO 28012G21KT 10SM BKN070 OVC100 M12/M19 A2975 RMK AO1 52003

More Conditions Fewer Conditions

10-Day Weather Forecast

Almanac

Astronomy

Jan. 31, 2015 Rise Set
Actual Time
Civil Twilight
Nautical Twilight
Astronomical Twilight
Moon
Length of Visible Light
Length of Day
Tomorrow will be .
, % of the Moon is Illuminated

Today's Extremes

State Highs State Lows

Community

WunderPhotos

Upload Photos

1,792,021 photos uploaded!

WunderBlogs® & News

Nearby

Air Quality

  Air Quality AQ Index Pollutant
Not available.

Snow Depth

Station Depth Elevation

Earthquake Activity

City Distance Mag. Time & Date
Minimum magnitude displayed is 2.5.

Coastal Water Temperatures

Place Temperature

Nearby Weather Stations